sensor_id;sensor_type;location;lat;lon;timestamp;pressure;altitude;pressure_sealevel;temperature;humidity
53868;BME280;41577;47.470;19.080;2023-10-31T00:00:10;99295.41;;;14.11;100.00
53868;BME280;41577;47.470;19.080;2023-10-31T00:00:22;99292.72;;;14.11;100.00
53868;BME280;41577;47.470;19.080;2023-10-31T00:00:34;99290.03;;;14.11;100.00
53868;BME280;41577;47.470;19.080;2023-10-31T00:00:46;99283.84;;;14.10;100.00
53868;BME280;41577;47.470;19.080;2023-10-31T00:00:58;99286.53;;;14.10;100.00
53868;BME280;41577;47.470;19.080;2023-10-31T00:01:10;99283.28;;;14.08;100.00
53868;BME280;41577;47.470;19.080;2023-10-31T00:01:22;99283.28;;;14.08;100.00
53868;BME280;41577;47.470;19.080;2023-10-31T00:01:34;99285.72;;;14.10;100.00
53868;BME280;41577;47.470;19.080;2023-10-31T00:01:46;99284.91;;;14.09;100.00
53868;BME280;41577;47.470;19.080;2023-10-31T00:01:58;99282.22;;;14.09;100.00
53868;BME280;41577;47.470;19.080;2023-10-31T00:02:10;99291.34;;;14.08;100.00
53868;BME280;41577;47.470;19.080;2023-10-31T00:02:22;99283.28;;;14.08;100.00
53868;BME280;41577;47.470;19.080;2023-10-31T00:02:33;99284.09;;;14.09;100.00
53868;BME280;41577;47.470;19.080;2023-10-31T00:02:45;99287.03;;;14.07;100.00
53868;BME280;41577;47.470;19.080;2023-10-31T00:02:58;99284.09;;;14.09;100.00
53868;BME280;41577;47.470;19.080;2023-10-31T00:03:10;99279.78;;;14.08;100.00
53868;BME280;41577;47.470;19.080;2023-10-31T00:03:21;99288.06;;;14.06;100.00
53868;BME280;41577;47.470;19.080;2023-10-31T00:03:34;99283.50;;;14.07;100.00
53868;BME280;41577;47.470;19.080;2023-10-31T00:03:45;99283.50;;;14.07;100.00
53868;BME280;41577;47.470;19.080;2023-10-31T00:03:57;99281.06;;;14.05;100.00
53868;BME280;41577;47.470;19.080;2023-10-31T00:04:09;99283.75;;;14.05;100.00
53868;BME280;41577;47.470;19.080;2023-10-31T00:04:21;99275.69;;;14.05;100.00
53868;BME280;41577;47.470;19.080;2023-10-31T00:04:33;99273.25;;;14.04;100.00
53868;BME280;41577;47.470;19.080;2023-10-31T00:04:45;99278.38;;;14.05;100.00
53868;BME280;41577;47.470;19.080;2023-10-31T00:04:57;99277.56;;;14.05;100.00
53868;BME280;41577;47.470;19.080;2023-10-31T00:05:09;99273.03;;;14.05;100.00
53868;BME280;41577;47.470;19.080;2023-10-31T00:05:21;99271.38;;;14.04;100.00
53868;BME280;41577;47.470;19.080;2023-10-31T00:05:32;99280.22;;;14.05;100.00
53868;BME280;41577;47.470;19.080;2023-10-31T00:05:44;99278.38;;;14.05;100.00
53868;BME280;41577;47.470;19.080;2023-10-31T00:05:56;99275.13;;;14.03;100.00
53868;BME280;41577;47.470;19.080;2023-10-31T00:06:08;99270.56;;;14.04;100.00
53868;BME280;41577;47.470;19.080;2023-10-31T00:06:20;99271.38;;;14.04;100.00
53868;BME280;41577;47.470;19.080;2023-10-31T00:06:32;99270.56;;;14.04;100.00
53868;BME280;41577;47.470;19.080;2023-10-31T00:06:44;99274.88;;;14.05;100.00
53868;BME280;41577;47.470;19.080;2023-10-31T00:06:56;99275.13;;;14.03;100.00
53868;BME280;41577;47.470;19.080;2023-10-31T00:07:08;99267.88;;;14.04;100.00
53868;BME280;41577;47.470;19.080;2023-10-31T00:07:20;99271.16;;;14.06;100.00
53868;BME280;41577;47.470;19.080;2023-10-31T00:07:31;99274.06;;;14.04;100.00
53868;BME280;41577;47.470;19.080;2023-10-31T00:07:44;99274.06;;;14.04;100.00
53868;BME280;41577;47.470;19.080;2023-10-31T00:07:56;99273.25;;;14.04;100.00
53868;BME280;41577;47.470;19.080;2023-10-31T00:08:08;99271.38;;;14.04;100.00
53868;BME280;41577;47.470;19.080;2023-10-31T00:08:20;99271.84;;;14.01;100.00
53868;BME280;41577;47.470;19.080;2023-10-31T00:08:31;99263.53;;;14.02;100.00
53868;BME280;41577;47.470;19.080;2023-10-31T00:08:43;99270.56;;;14.04;100.00
53868;BME280;41577;47.470;19.080;2023-10-31T00:08:55;99268.91;;;14.02;100.00
53868;BME280;41577;47.470;19.080;2023-10-31T00:09:07;99271.59;;;14.02;100.00
53868;BME280;41577;47.470;19.080;2023-10-31T00:09:19;99267.28;;;14.01;100.00
53868;BME280;41577;47.470;19.080;2023-10-31T00:09:31;99267.06;;;14.03;100.00
53868;BME280;41577;47.470;19.080;2023-10-31T00:09:43;99266.22;;;14.02;100.00
53868;BME280;41577;47.470;19.080;2023-10-31T00:09:55;99267.06;;;14.03;100.00
53868;BME280;41577;47.470;19.080;2023-10-31T00:10:07;99265.69;;;14.00;100.00
53868;BME280;41577;47.470;19.080;2023-10-31T00:10:19;99265.41;;;14.02;100.00
53868;BME280;41577;47.470;19.080;2023-10-31T00:10:31;99276.16;;;14.02;100.00
53868;BME280;41577;47.470;19.080;2023-10-31T00:10:45;99264.59;;;14.01;100.00
53868;BME280;41577;47.470;19.080;2023-10-31T00:10:57;99267.28;;;14.01;100.00
53868;BME280;41577;47.470;19.080;2023-10-31T00:11:08;99262.72;;;14.02;100.00
53868;BME280;41577;47.470;19.080;2023-10-31T00:11:20;99268.09;;;14.02;100.00
53868;BME280;41577;47.470;19.080;2023-10-31T00:11:32;99268.09;;;14.02;100.00
53868;BME280;41577;47.470;19.080;2023-10-31T00:11:44;99263.81;;;14.01;100.00
53868;BME280;41577;47.470;19.080;2023-10-31T00:11:57;99274.53;;;14.01;100.00
53868;BME280;41577;47.470;19.080;2023-10-31T00:12:09;99271.03;;;14.00;100.00
53868;BME280;41577;47.470;19.080;2023-10-31T00:12:21;99271.03;;;14.00;100.00
53868;BME280;41577;47.470;19.080;2023-10-31T00:12:33;99271.03;;;14.00;100.00
53868;BME280;41577;47.470;19.080;2023-10-31T00:12:45;99270.47;;;13.98;100.00
53868;BME280;41577;47.470;19.080;2023-10-31T00:12:56;99270.22;;;14.00;100.00
53868;BME280;41577;47.470;19.080;2023-10-31T00:13:08;99273.72;;;14.00;100.00
53868;BME280;41577;47.470;19.080;2023-10-31T00:13:20;99270.47;;;13.98;100.00
53868;BME280;41577;47.470;19.080;2023-10-31T00:13:32;99270.47;;;13.98;100.00
53868;BME280;41577;47.470;19.080;2023-10-31T00:13:44;99266.94;;;13.98;100.00
53868;BME280;41577;47.470;19.080;2023-10-31T00:13:56;99268.00;;;13.97;100.00
53868;BME280;41577;47.470;19.080;2023-10-31T00:14:07;99276.06;;;13.97;100.00
53868;BME280;41577;47.470;19.080;2023-10-31T00:14:39;99268.81;;;13.97;100.00
53868;BME280;41577;47.470;19.080;2023-10-31T00:14:51;99272.56;;;13.96;100.00
53868;BME280;41577;47.470;19.080;2023-10-31T00:15:03;99265.31;;;13.97;100.00
53868;BME280;41577;47.470;19.080;2023-10-31T00:15:15;99274.19;;;13.97;100.00
53868;BME280;41577;47.470;19.080;2023-10-31T00:15:27;99276.88;;;13.97;100.00
53868;BME280;41577;47.470;19.080;2023-10-31T00:15:39;99274.19;;;13.97;100.00
53868;BME280;41577;47.470;19.080;2023-10-31T00:15:51;99272.56;;;13.96;100.00
53868;BME280;41577;47.470;19.080;2023-10-31T00:16:03;99272.56;;;13.96;100.00
53868;BME280;41577;47.470;19.080;2023-10-31T00:16:15;99274.44;;;13.96;100.00
53868;BME280;41577;47.470;19.080;2023-10-31T00:16:27;99277.13;;;13.96;100.00
53868;BME280;41577;47.470;19.080;2023-10-31T00:16:39;99277.13;;;13.96;100.00
53868;BME280;41577;47.470;19.080;2023-10-31T00:16:51;99278.97;;;13.95;100.00
53868;BME280;41577;47.470;19.080;2023-10-31T00:17:03;99273.38;;;13.97;100.00
53868;BME280;41577;47.470;19.080;2023-10-31T00:17:15;99269.88;;;13.96;100.00
53868;BME280;41577;47.470;19.080;2023-10-31T00:17:27;99277.94;;;13.96;100.00
53868;BME280;41577;47.470;19.080;2023-10-31T00:17:39;99276.28;;;13.95;100.00
53868;BME280;41577;47.470;19.080;2023-10-31T00:17:50;99278.97;;;13.95;100.00
53868;BME280;41577;47.470;19.080;2023-10-31T00:18:02;99270.91;;;13.95;100.00
53868;BME280;41577;47.470;19.080;2023-10-31T00:18:14;99272.78;;;13.95;100.00
53868;BME280;41577;47.470;19.080;2023-10-31T00:18:26;99276.28;;;13.95;100.00
53868;BME280;41577;47.470;19.080;2023-10-31T00:18:38;99273.59;;;13.95;100.00
53868;BME280;41577;47.470;19.080;2023-10-31T00:18:50;99268.50;;;13.94;100.00
53868;BME280;41577;47.470;19.080;2023-10-31T00:19:02;99275.47;;;13.95;100.00
53868;BME280;41577;47.470;19.080;2023-10-31T00:19:14;99266.59;;;13.94;100.00
53868;BME280;41577;47.470;19.080;2023-10-31T00:19:26;99273.00;;;13.93;100.00
53868;BME280;41577;47.470;19.080;2023-10-31T00:19:38;99279.22;;;13.94;100.00
53868;BME280;41577;47.470;19.080;2023-10-31T00:19:49;99266.84;;;13.93;100.00
53868;BME280;41577;47.470;19.080;2023-10-31T00:20:01;99271.97;;;13.94;100.00
53868;BME280;41577;47.470;19.080;2023-10-31T00:20:14;99275.69;;;13.93;100.00
53868;BME280;41577;47.470;19.080;2023-10-31T00:20:26;99277.34;;;13.94;100.00
53868;BME280;41577;47.470;19.080;2023-10-31T00:20:37;99275.69;;;13.93;100.00
53868;BME280;41577;47.470;19.080;2023-10-31T00:20:49;99270.34;;;13.93;100.00
53868;BME280;41577;47.470;19.080;2023-10-31T00:21:01;99277.56;;;13.93;100.00
53868;BME280;41577;47.470;19.080;2023-10-31T00:21:13;99270.34;;;13.93;100.00
53868;BME280;41577;47.470;19.080;2023-10-31T00:21:29;99278.38;;;13.93;100.00
53868;BME280;41577;47.470;19.080;2023-10-31T00:21:40;99268.50;;;13.94;100.00
53868;BME280;41577;47.470;19.080;2023-10-31T00:21:52;99270.34;;;13.93;100.00
53868;BME280;41577;47.470;19.080;2023-10-31T00:22:04;99271.16;;;13.94;100.00
53868;BME280;41577;47.470;19.080;2023-10-31T00:22:16;99271.97;;;13.94;100.00
53868;BME280;41577;47.470;19.080;2023-10-31T00:22:27;99271.41;;;13.92;100.00
53868;BME280;41577;47.470;19.080;2023-10-31T00:22:39;99276.75;;;13.92;100.00
53868;BME280;41577;47.470;19.080;2023-10-31T00:22:51;99269.53;;;13.93;100.00
53868;BME280;41577;47.470;19.080;2023-10-31T00:23:03;99266.03;;;13.92;100.00
53868;BME280;41577;47.470;19.080;2023-10-31T00:23:15;99276.53;;;13.94;100.00
53868;BME280;41577;47.470;19.080;2023-10-31T00:23:27;99266.84;;;13.93;100.00
53868;BME280;41577;47.470;19.080;2023-10-31T00:23:46;99266.03;;;13.92;100.00
53868;BME280;41577;47.470;19.080;2023-10-31T00:23:58;99271.41;;;13.92;100.00
53868;BME280;41577;47.470;19.080;2023-10-31T00:24:10;99277.56;;;13.93;100.00
53868;BME280;41577;47.470;19.080;2023-10-31T00:24:22;99274.06;;;13.92;100.00
53868;BME280;41577;47.470;19.080;2023-10-31T00:24:34;99268.72;;;13.92;100.00
53868;BME280;41577;47.470;19.080;2023-10-31T00:24:46;99274.88;;;13.93;100.00
53868;BME280;41577;47.470;19.080;2023-10-31T00:24:57;99269.78;;;13.91;100.00
53868;BME280;41577;47.470;19.080;2023-10-31T00:25:09;99270.59;;;13.92;100.00
53868;BME280;41577;47.470;19.080;2023-10-31T00:25:21;99274.06;;;13.92;100.00
53868;BME280;41577;47.470;19.080;2023-10-31T00:25:33;99273.28;;;13.92;100.00
53868;BME280;41577;47.470;19.080;2023-10-31T00:25:46;99266.25;;;13.91;100.00
53868;BME280;41577;47.470;19.080;2023-10-31T00:25:58;99273.28;;;13.92;100.00
53868;BME280;41577;47.470;19.080;2023-10-31T00:26:10;99269.53;;;13.93;100.00
53868;BME280;41577;47.470;19.080;2023-10-31T00:26:25;99272.47;;;13.91;100.00
53868;BME280;41577;47.470;19.080;2023-10-31T00:26:37;99276.53;;;13.94;100.00
53868;BME280;41577;47.470;19.080;2023-10-31T00:26:49;99273.00;;;13.93;100.00
53868;BME280;41577;47.470;19.080;2023-10-31T00:27:01;99271.41;;;13.92;100.00
53868;BME280;41577;47.470;19.080;2023-10-31T00:27:13;99273.28;;;13.92;100.00
53868;BME280;41577;47.470;19.080;2023-10-31T00:27:25;99276.75;;;13.92;100.00
53868;BME280;41577;47.470;19.080;2023-10-31T00:27:36;99279.44;;;13.92;100.00
53868;BME280;41577;47.470;19.080;2023-10-31T00:27:48;99272.22;;;13.93;100.00
53868;BME280;41577;47.470;19.080;2023-10-31T00:28:00;99273.00;;;13.93;100.00
53868;BME280;41577;47.470;19.080;2023-10-31T00:28:12;99274.06;;;13.92;100.00
53868;BME280;41577;47.470;19.080;2023-10-31T00:28:24;99267.91;;;13.92;100.00
53868;BME280;41577;47.470;19.080;2023-10-31T00:28:36;99267.09;;;13.91;100.00
53868;BME280;41577;47.470;19.080;2023-10-31T00:28:48;99270.59;;;13.92;100.00
53868;BME280;41577;47.470;19.080;2023-10-31T00:29:00;99267.09;;;13.91;100.00
53868;BME280;41577;47.470;19.080;2023-10-31T00:29:12;99268.72;;;13.92;100.00
53868;BME280;41577;47.470;19.080;2023-10-31T00:29:24;99269.78;;;13.91;100.00
53868;BME280;41577;47.470;19.080;2023-10-31T00:29:36;99263.34;;;13.92;100.00
53868;BME280;41577;47.470;19.080;2023-10-31T00:29:47;99267.66;;;13.93;100.00
53868;BME280;41577;47.470;19.080;2023-10-31T00:29:59;99268.50;;;13.94;100.00
53868;BME280;41577;47.470;19.080;2023-10-31T00:30:11;99263.13;;;13.94;100.00
53868;BME280;41577;47.470;19.080;2023-10-31T00:30:24;99268.22;;;13.95;100.00
53868;BME280;41577;47.470;19.080;2023-10-31T00:30:35;99263.94;;;13.94;100.00
53868;BME280;41577;47.470;19.080;2023-10-31T00:30:47;99263.13;;;13.94;100.00
53868;BME280;41577;47.470;19.080;2023-10-31T00:30:59;99255.06;;;13.94;100.00
53868;BME280;41577;47.470;19.080;2023-10-31T00:31:11;99257.75;;;13.94;100.00
53868;BME280;41577;47.470;19.080;2023-10-31T00:31:23;99258.56;;;13.94;100.00
53868;BME280;41577;47.470;19.080;2023-10-31T00:31:35;99261.25;;;13.94;100.00
53868;BME280;41577;47.470;19.080;2023-10-31T00:31:47;99253.19;;;13.94;100.00
53868;BME280;41577;47.470;19.080;2023-10-31T00:31:59;99256.47;;;13.96;100.00
53868;BME280;41577;47.470;19.080;2023-10-31T00:32:12;99258.56;;;13.94;100.00
53868;BME280;41577;47.470;19.080;2023-10-31T00:32:24;99257.75;;;13.94;100.00
53868;BME280;41577;47.470;19.080;2023-10-31T00:32:35;99254.81;;;13.95;100.00
53868;BME280;41577;47.470;19.080;2023-10-31T00:32:47;99257.75;;;13.94;100.00
53868;BME280;41577;47.470;19.080;2023-10-31T00:32:59;99254.00;;;13.95;100.00
53868;BME280;41577;47.470;19.080;2023-10-31T00:33:11;99260.19;;;13.95;100.00
53868;BME280;41577;47.470;19.080;2023-10-31T00:33:23;99252.13;;;13.95;100.00
53868;BME280;41577;47.470;19.080;2023-10-31T00:33:35;99261.81;;;13.96;100.00
53868;BME280;41577;47.470;19.080;2023-10-31T00:33:47;99254.81;;;13.95;100.00
53868;BME280;41577;47.470;19.080;2023-10-31T00:33:59;99254.00;;;13.95;100.00
53868;BME280;41577;47.470;19.080;2023-10-31T00:34:11;99252.13;;;13.95;100.00
53868;BME280;41577;47.470;19.080;2023-10-31T00:34:23;99252.13;;;13.95;100.00
53868;BME280;41577;47.470;19.080;2023-10-31T00:34:35;99252.13;;;13.95;100.00
53868;BME280;41577;47.470;19.080;2023-10-31T00:34:47;99254.81;;;13.95;100.00
53868;BME280;41577;47.470;19.080;2023-10-31T00:34:59;99247.81;;;13.94;100.00
53868;BME280;41577;47.470;19.080;2023-10-31T00:35:11;99247.59;;;13.96;100.00
53868;BME280;41577;47.470;19.080;2023-10-31T00:35:23;99243.25;;;13.95;100.00
53868;BME280;41577;47.470;19.080;2023-10-31T00:35:35;99248.63;;;13.95;100.00
53868;BME280;41577;47.470;19.080;2023-10-31T00:35:46;99247.81;;;13.94;100.00
53868;BME280;41577;47.470;19.080;2023-10-31T00:35:58;99248.41;;;13.96;100.00
53868;BME280;41577;47.470;19.080;2023-10-31T00:36:10;99243.25;;;13.95;100.00
53868;BME280;41577;47.470;19.080;2023-10-31T00:36:22;99245.72;;;13.96;100.00
53868;BME280;41577;47.470;19.080;2023-10-31T00:36:34;99244.91;;;13.96;100.00
53868;BME280;41577;47.470;19.080;2023-10-31T00:36:46;99250.28;;;13.96;100.00
53868;BME280;41577;47.470;19.080;2023-10-31T00:36:58;99244.06;;;13.95;100.00
53868;BME280;41577;47.470;19.080;2023-10-31T00:37:10;99244.91;;;13.96;100.00
53868;BME280;41577;47.470;19.080;2023-10-31T00:37:22;99247.81;;;13.94;100.00
53868;BME280;41577;47.470;19.080;2023-10-31T00:37:34;99240.34;;;13.96;100.00
53868;BME280;41577;47.470;19.080;2023-10-31T00:37:46;99240.34;;;13.96;100.00
53868;BME280;41577;47.470;19.080;2023-10-31T00:37:58;99238.47;;;13.97;100.00
53868;BME280;41577;47.470;19.080;2023-10-31T00:38:10;99237.91;;;13.95;100.00
53868;BME280;41577;47.470;19.080;2023-10-31T00:38:22;99237.66;;;13.96;100.00
53868;BME280;41577;47.470;19.080;2023-10-31T00:38:34;99234.19;;;13.96;100.00
53868;BME280;41577;47.470;19.080;2023-10-31T00:38:46;99240.34;;;13.96;100.00
53868;BME280;41577;47.470;19.080;2023-10-31T00:38:58;99235.22;;;13.95;100.00
53868;BME280;41577;47.470;19.080;2023-10-31T00:39:09;99240.34;;;13.96;100.00
53868;BME280;41577;47.470;19.080;2023-10-31T00:39:21;99236.59;;;13.97;100.00
53868;BME280;41577;47.470;19.080;2023-10-31T00:39:33;99235.78;;;13.97;100.00
53868;BME280;41577;47.470;19.080;2023-10-31T00:39:45;99235.78;;;13.97;100.00
53868;BME280;41577;47.470;19.080;2023-10-31T00:39:57;99241.16;;;13.97;100.00
53868;BME280;41577;47.470;19.080;2023-10-31T00:40:11;99243.03;;;13.96;100.00
53868;BME280;41577;47.470;19.080;2023-10-31T00:40:22;99237.41;;;13.98;100.00
53868;BME280;41577;47.470;19.080;2023-10-31T00:40:34;99236.84;;;13.96;100.00
53868;BME280;41577;47.470;19.080;2023-10-31T00:40:48;99239.28;;;13.97;100.00
53868;BME280;41577;47.470;19.080;2023-10-31T00:41:00;99240.34;;;13.96;100.00
53868;BME280;41577;47.470;19.080;2023-10-31T00:41:12;99241.97;;;13.97;100.00
53868;BME280;41577;47.470;19.080;2023-10-31T00:41:24;99234.97;;;13.96;100.00
53868;BME280;41577;47.470;19.080;2023-10-31T00:41:36;99238.47;;;13.97;100.00
53868;BME280;41577;47.470;19.080;2023-10-31T00:41:48;99244.66;;;13.97;100.00
53868;BME280;41577;47.470;19.080;2023-10-31T00:41:59;99240.34;;;13.96;100.00
53868;BME280;41577;47.470;19.080;2023-10-31T00:42:12;99243.03;;;13.96;100.00
53868;BME280;41577;47.470;19.080;2023-10-31T00:42:23;99245.72;;;13.96;100.00
53868;BME280;41577;47.470;19.080;2023-10-31T00:42:35;99239.53;;;13.96;100.00
53868;BME280;41577;47.470;19.080;2023-10-31T00:42:47;99244.06;;;13.95;100.00
53868;BME280;41577;47.470;19.080;2023-10-31T00:42:59;99237.91;;;13.95;100.00
53868;BME280;41577;47.470;19.080;2023-10-31T00:43:11;99244.06;;;13.95;100.00
53868;BME280;41577;47.470;19.080;2023-10-31T00:43:23;99240.81;;;13.93;100.00
53868;BME280;41577;47.470;19.080;2023-10-31T00:43:35;99230.91;;;13.94;100.00
53868;BME280;41577;47.470;19.080;2023-10-31T00:43:47;99237.09;;;13.94;100.00
53868;BME280;41577;47.470;19.080;2023-10-31T00:43:59;99238.13;;;13.93;100.00
53868;BME280;41577;47.470;19.080;2023-10-31T00:44:11;99235.44;;;13.93;100.00
53868;BME280;41577;47.470;19.080;2023-10-31T00:44:23;99232.75;;;13.93;100.00
53868;BME280;41577;47.470;19.080;2023-10-31T00:44:35;99235.44;;;13.93;100.00
53868;BME280;41577;47.470;19.080;2023-10-31T00:44:47;99229.25;;;13.93;100.00
53868;BME280;41577;47.470;19.080;2023-10-31T00:44:59;99228.44;;;13.92;100.00
53868;BME280;41577;47.470;19.080;2023-10-31T00:45:11;99231.13;;;13.92;100.00
53868;BME280;41577;47.470;19.080;2023-10-31T00:45:23;99241.88;;;13.92;100.00
53868;BME280;41577;47.470;19.080;2023-10-31T00:45:35;99236.72;;;13.91;100.00
53868;BME280;41577;47.470;19.080;2023-10-31T00:45:48;99234.88;;;13.91;100.00
53868;BME280;41577;47.470;19.080;2023-10-31T00:46:02;99233.22;;;13.90;100.00
53868;BME280;41577;47.470;19.080;2023-10-31T00:46:14;99231.38;;;13.91;100.00
53868;BME280;41577;47.470;19.080;2023-10-31T00:46:26;99235.91;;;13.90;100.00
53868;BME280;41577;47.470;19.080;2023-10-31T00:46:38;99237.56;;;13.91;100.00
53868;BME280;41577;47.470;19.080;2023-10-31T00:46:49;99235.09;;;13.90;100.00
53868;BME280;41577;47.470;19.080;2023-10-31T00:47:01;99240.25;;;13.91;100.00
53868;BME280;41577;47.470;19.080;2023-10-31T00:47:13;99230.78;;;13.89;100.00
53868;BME280;41577;47.470;19.080;2023-10-31T00:47:25;99232.19;;;13.91;100.00
53868;BME280;41577;47.470;19.080;2023-10-31T00:47:37;99240.47;;;13.90;100.00
53868;BME280;41577;47.470;19.080;2023-10-31T00:47:50;99235.09;;;13.90;100.00
53868;BME280;41577;47.470;19.080;2023-10-31T00:48:02;99232.66;;;13.88;100.00
53868;BME280;41577;47.470;19.080;2023-10-31T00:48:14;99239.66;;;13.89;100.00
53868;BME280;41577;47.470;19.080;2023-10-31T00:48:26;99233.47;;;13.89;100.00
53868;BME280;41577;47.470;19.080;2023-10-31T00:48:38;99238.03;;;13.88;100.00
53868;BME280;41577;47.470;19.080;2023-10-31T00:48:51;99238.03;;;13.88;100.00
53868;BME280;41577;47.470;19.080;2023-10-31T00:49:03;99239.91;;;13.88;100.00
53868;BME280;41577;47.470;19.080;2023-10-31T00:49:15;99235.59;;;13.87;100.00
53868;BME280;41577;47.470;19.080;2023-10-31T00:49:27;99239.31;;;13.86;100.00
53868;BME280;41577;47.470;19.080;2023-10-31T00:49:39;99240.13;;;13.86;100.00
53868;BME280;41577;47.470;19.080;2023-10-31T00:49:51;99235.59;;;13.87;100.00
53868;BME280;41577;47.470;19.080;2023-10-31T00:50:03;99231.50;;;13.84;100.00
53868;BME280;41577;47.470;19.080;2023-10-31T00:50:15;99243.88;;;13.85;100.00
53868;BME280;41577;47.470;19.080;2023-10-31T00:50:27;99241.19;;;13.85;100.00
53868;BME280;41577;47.470;19.080;2023-10-31T00:50:39;99234.16;;;13.84;100.00
53868;BME280;41577;47.470;19.080;2023-10-31T00:50:51;99236.03;;;13.84;100.00
53868;BME280;41577;47.470;19.080;2023-10-31T00:51:03;99237.09;;;13.83;100.00
53868;BME280;41577;47.470;19.080;2023-10-31T00:51:15;99236.03;;;13.84;100.00
53868;BME280;41577;47.470;19.080;2023-10-31T00:51:27;99233.59;;;13.82;100.00
53868;BME280;41577;47.470;19.080;2023-10-31T00:51:39;99232.56;;;13.83;100.00
53868;BME280;41577;47.470;19.080;2023-10-31T00:51:51;99232.56;;;13.83;100.00
53868;BME280;41577;47.470;19.080;2023-10-31T00:52:03;99232.56;;;13.83;100.00
53868;BME280;41577;47.470;19.080;2023-10-31T00:52:15;99222.03;;;13.81;100.00
53868;BME280;41577;47.470;19.080;2023-10-31T00:52:27;99223.69;;;13.83;100.00
53868;BME280;41577;47.470;19.080;2023-10-31T00:52:39;99225.53;;;13.82;100.00
53868;BME280;41577;47.470;19.080;2023-10-31T00:52:51;99224.97;;;13.80;100.00
53868;BME280;41577;47.470;19.080;2023-10-31T00:53:02;99229.28;;;13.81;100.00
53868;BME280;41577;47.470;19.080;2023-10-31T00:53:14;99220.44;;;13.80;100.00
53868;BME280;41577;47.470;19.080;2023-10-31T00:53:26;99228.47;;;13.80;100.00
53868;BME280;41577;47.470;19.080;2023-10-31T00:53:38;99223.91;;;13.81;100.00
53868;BME280;41577;47.470;19.080;2023-10-31T00:53:51;99223.09;;;13.80;100.00
53868;BME280;41577;47.470;19.080;2023-10-31T00:54:03;99218.78;;;13.79;100.00
53868;BME280;41577;47.470;19.080;2023-10-31T00:54:14;99221.47;;;13.79;100.00
53868;BME280;41577;47.470;19.080;2023-10-31T00:54:26;99220.44;;;13.80;100.00
53868;BME280;41577;47.470;19.080;2023-10-31T00:54:38;99227.66;;;13.80;100.00
53868;BME280;41577;47.470;19.080;2023-10-31T00:54:50;99216.34;;;13.78;100.00
53868;BME280;41577;47.470;19.080;2023-10-31T00:55:02;99219.84;;;13.78;100.00
53868;BME280;41577;47.470;19.080;2023-10-31T00:55:14;99221.47;;;13.79;100.00
53868;BME280;41577;47.470;19.080;2023-10-31T00:55:26;99220.44;;;13.80;100.00
53868;BME280;41577;47.470;19.080;2023-10-31T00:55:38;99221.47;;;13.79;100.00
53868;BME280;41577;47.470;19.080;2023-10-31T00:55:51;99223.34;;;13.79;100.00
53868;BME280;41577;47.470;19.080;2023-10-31T00:56:04;99220.66;;;13.79;100.00
53868;BME280;41577;47.470;19.080;2023-10-31T00:56:16;99217.97;;;13.79;100.00
53868;BME280;41577;47.470;19.080;2023-10-31T00:56:28;99217.63;;;13.75;100.00
53868;BME280;41577;47.470;19.080;2023-10-31T00:56:40;99216.34;;;13.78;100.00
53868;BME280;41577;47.470;19.080;2023-10-31T00:56:52;99211.78;;;13.78;100.00
53868;BME280;41577;47.470;19.080;2023-10-31T00:57:04;99218.19;;;13.77;100.00
53868;BME280;41577;47.470;19.080;2023-10-31T00:57:16;99216.34;;;13.78;100.00
53868;BME280;41577;47.470;19.080;2023-10-31T00:57:27;99212.03;;;13.77;100.00
53868;BME280;41577;47.470;19.080;2023-10-31T00:57:40;99217.38;;;13.77;100.00
53868;BME280;41577;47.470;19.080;2023-10-31T00:57:52;99219.03;;;13.78;100.00
53868;BME280;41577;47.470;19.080;2023-10-31T00:58:04;99215.50;;;13.77;100.00
53868;BME280;41577;47.470;19.080;2023-10-31T00:58:16;99210.16;;;13.77;100.00
53868;BME280;41577;47.470;19.080;2023-10-31T00:58:28;99212.28;;;13.75;100.00
53868;BME280;41577;47.470;19.080;2023-10-31T00:58:40;99218.44;;;13.76;100.00
53868;BME280;41577;47.470;19.080;2023-10-31T00:58:52;99214.69;;;13.77;100.00
53868;BME280;41577;47.470;19.080;2023-10-31T00:59:04;99209.34;;;13.77;100.00
53868;BME280;41577;47.470;19.080;2023-10-31T00:59:16;99206.06;;;13.75;100.00
53868;BME280;41577;47.470;19.080;2023-10-31T00:59:28;99213.09;;;13.76;100.00
53868;BME280;41577;47.470;19.080;2023-10-31T00:59:40;99207.72;;;13.76;100.00
53868;BME280;41577;47.470;19.080;2023-10-31T00:59:52;99206.91;;;13.75;100.00
53868;BME280;41577;47.470;19.080;2023-10-31T01:00:04;99207.72;;;13.76;100.00
53868;BME280;41577;47.470;19.080;2023-10-31T01:00:17;99205.84;;;13.76;100.00
53868;BME280;41577;47.470;19.080;2023-10-31T01:00:29;99206.06;;;13.75;100.00
53868;BME280;41577;47.470;19.080;2023-10-31T01:00:41;99212.03;;;13.77;100.00
53868;BME280;41577;47.470;19.080;2023-10-31T01:00:53;99208.53;;;13.76;100.00
53868;BME280;41577;47.470;19.080;2023-10-31T01:01:05;99208.75;;;13.75;100.00
53868;BME280;41577;47.470;19.080;2023-10-31T01:01:17;99206.66;;;13.77;100.00
53868;BME280;41577;47.470;19.080;2023-10-31T01:01:29;99205.84;;;13.76;100.00
53868;BME280;41577;47.470;19.080;2023-10-31T01:01:42;99198.84;;;13.75;100.00
53868;BME280;41577;47.470;19.080;2023-10-31T01:01:55;99201.53;;;13.75;100.00
53868;BME280;41577;47.470;19.080;2023-10-31T01:02:07;99203.97;;;13.77;100.00
53868;BME280;41577;47.470;19.080;2023-10-31T01:02:18;99202.34;;;13.76;100.00
53868;BME280;41577;47.470;19.080;2023-10-31T01:02:31;99202.34;;;13.76;100.00